Time,TemperatureF,DewpointF,PressureIn,WindDirection,WindDirectionDegrees,WindSpeedMPH,WindSpeedGustMPH,Humidity,HourlyPrecipIn,Conditions,Clouds,dailyrainin,SoftwareType,DateUTC
2013-07-04 00:00:00,69.6,63.5,31.01,ENE,68,0.0,0.0,81,0.00,,---,0.00,VWS V14.01,2013-07-04 04:00:00,
2013-07-04 00:01:00,69.6,63.5,31.01,ENE,68,0.0,0.0,81,0.00,,---,0.00,VWS V14.01,2013-07-04 04:01:00,
2013-07-04 00:06:00,69.6,63.5,31.01,ENE,68,0.0,0.0,81,0.00,,---,0.00,VWS V14.01,2013-07-04 04:06:00,
2013-07-04 00:11:00,69.6,63.5,31.01,ENE,68,0.0,0.0,81,0.00,,---,0.00,VWS V14.01,2013-07-04 04:11:00,
2013-07-04 00:16:00,69.6,63.5,31.01,ENE,68,0.0,0.0,81,0.00,,---,0.00,VWS V14.01,2013-07-04 04:16:00,
2013-07-04 00:21:00,69.6,63.5,31.01,ENE,68,0.0,0.0,81,0.00,,---,0.00,VWS V14.01,2013-07-04 04:21:00,
2013-07-04 00:26:00,69.6,63.5,31.01,ENE,68,0.0,0.0,81,0.00,,---,0.00,VWS V14.01,2013-07-04 04:26:00,
2013-07-04 00:31:00,69.6,63.5,31.01,ENE,68,0.0,0.0,81,0.00,,---,0.00,VWS V14.01,2013-07-04 04:31:00,
2013-07-04 00:36:00,69.6,63.5,31.01,ENE,68,0.0,0.0,81,0.00,,---,0.00,VWS V14.01,2013-07-04 04:36:00,
2013-07-04 00:41:00,69.6,63.5,31.01,ENE,68,0.0,0.0,81,0.00,,---,0.00,VWS V14.01,2013-07-04 04:41:00,
2013-07-04 00:46:00,69.4,63.4,31.01,ENE,68,0.0,0.0,81,0.00,,---,0.00,VWS V14.01,2013-07-04 04:46:00,
2013-07-04 00:51:00,69.4,63.4,31.01,ENE,68,0.0,0.0,81,0.00,,---,0.00,VWS V14.01,2013-07-04 04:51:00,
2013-07-04 00:56:00,69.4,63.4,31.01,ENE,68,0.0,0.0,81,0.00,,---,0.00,VWS V14.01,2013-07-04 04:56:00,
2013-07-04 01:01:00,69.4,63.4,31.01,ENE,68,0.0,0.0,81,0.00,,---,0.00,VWS V14.01,2013-07-04 05:01:00,
2013-07-04 01:06:00,69.4,63.4,31.01,ENE,68,0.0,0.0,81,0.00,,---,0.00,VWS V14.01,2013-07-04 05:06:00,
2013-07-04 01:11:00,69.3,63.2,31.01,ENE,68,0.0,0.0,81,0.00,,---,0.00,VWS V14.01,2013-07-04 05:11:00,
2013-07-04 01:16:00,69.4,63.4,31.01,ENE,68,0.0,0.0,81,0.00,,---,0.00,VWS V14.01,2013-07-04 05:16:00,
2013-07-04 01:21:00,69.4,63.4,31.01,ENE,68,0.0,0.0,81,0.00,,---,0.00,VWS V14.01,2013-07-04 05:21:00,
2013-07-04 01:26:00,69.4,63.4,31.01,ENE,68,0.0,0.0,81,0.00,,---,0.00,VWS V14.01,2013-07-04 05:26:00,
2013-07-04 01:31:00,69.4,63.4,30.27,ENE,68,0.0,0.0,81,0.00,,---,0.00,VWS V14.01,2013-07-04 05:31:00,
2013-07-04 01:36:00,69.4,63.4,30.27,ENE,68,0.0,0.0,81,0.00,,---,0.00,VWS V14.01,2013-07-04 05:36:00,
2013-07-04 01:41:00,69.4,63.4,30.27,ENE,68,0.0,0.0,81,0.00,,---,0.00,VWS V14.01,2013-07-04 05:41:00,
2013-07-04 01:46:00,69.4,63.4,31.01,ENE,68,0.0,0.0,81,0.00,,---,0.00,VWS V14.01,2013-07-04 05:46:00,
2013-07-04 01:51:00,69.3,63.2,31.01,ENE,68,0.0,0.0,81,0.00,,---,0.00,VWS V14.01,2013-07-04 05:51:00,
2013-07-04 01:55:00,69.1,63.0,31.01,ENE,68,0.0,0.0,81,0.00,,---,0.00,VWS V14.01,2013-07-04 05:55:00,
2013-07-04 02:00:00,69.3,63.2,31.01,ENE,68,0.0,0.0,81,0.00,,---,0.00,VWS V14.01,2013-07-04 06:00:00,
2013-07-04 02:05:00,69.3,63.2,31.01,ENE,68,0.0,0.0,81,0.00,,---,0.00,VWS V14.01,2013-07-04 06:05:00,
2013-07-04 02:10:00,69.3,63.2,31.01,ENE,68,0.0,0.0,81,0.00,,---,0.00,VWS V14.01,2013-07-04 06:10:00,
2013-07-04 02:15:00,69.1,63.0,31.01,ENE,68,0.0,0.0,81,0.00,,---,0.00,VWS V14.01,2013-07-04 06:15:00,
2013-07-04 02:20:00,68.9,62.8,31.01,ENE,68,0.0,0.0,81,0.00,,---,0.00,VWS V14.01,2013-07-04 06:20:00,
2013-07-04 02:25:00,68.7,62.7,31.01,ENE,68,0.0,0.0,81,0.00,,---,0.00,VWS V14.01,2013-07-04 06:25:00,
2013-07-04 02:30:00,68.9,63.2,30.41,ENE,68,0.0,0.0,82,0.00,,---,0.00,VWS V14.01,2013-07-04 06:30:00,
2013-07-04 02:35:00,68.9,63.2,30.41,ENE,68,0.0,0.0,82,0.00,,---,0.00,VWS V14.01,2013-07-04 06:35:00,
2013-07-04 02:40:00,68.9,63.2,30.41,ENE,68,0.0,0.0,82,0.00,,---,0.00,VWS V14.01,2013-07-04 06:40:00,
2013-07-04 02:45:00,68.9,63.2,31.01,ENE,68,0.0,0.0,82,0.00,,---,0.00,VWS V14.01,2013-07-04 06:45:00,
2013-07-04 02:50:00,68.7,63.0,31.01,ENE,68,0.0,0.0,82,0.00,,---,0.00,VWS V14.01,2013-07-04 06:50:00,
2013-07-04 02:55:00,68.7,63.0,31.01,ENE,68,0.0,0.0,82,0.00,,---,0.00,VWS V14.01,2013-07-04 06:55:00,
2013-07-04 03:00:00,68.5,62.8,31.01,ENE,68,0.0,0.0,82,0.00,,---,0.00,VWS V14.01,2013-07-04 07:00:00,
2013-07-04 03:05:00,68.7,63.0,31.01,ENE,68,0.0,0.0,82,0.00,,---,0.00,VWS V14.01,2013-07-04 07:05:00,
2013-07-04 03:10:00,68.7,63.0,31.01,ENE,68,0.0,0.0,82,0.00,,---,0.00,VWS V14.01,2013-07-04 07:10:00,
2013-07-04 03:15:00,68.7,63.0,31.01,ENE,68,0.0,0.0,82,0.00,,---,0.00,VWS V14.01,2013-07-04 07:15:00,
2013-07-04 03:20:00,68.7,63.0,31.01,ENE,68,0.0,0.0,82,0.00,,---,0.00,VWS V14.01,2013-07-04 07:20:00,
2013-07-04 03:25:00,68.7,63.0,31.01,ENE,68,0.0,0.0,82,0.00,,---,0.00,VWS V14.01,2013-07-04 07:25:00,
2013-07-04 03:30:00,68.5,62.8,30.21,ENE,68,0.0,0.0,82,0.00,,---,0.00,VWS V14.01,2013-07-04 07:30:00,
2013-07-04 03:35:00,68.7,63.0,30.21,ENE,68,0.0,0.0,82,0.00,,---,0.00,VWS V14.01,2013-07-04 07:35:00,
2013-07-04 03:40:00,68.7,63.0,30.21,ENE,68,0.0,0.0,82,0.00,,---,0.00,VWS V14.01,2013-07-04 07:40:00,
2013-07-04 03:45:00,68.7,63.0,31.01,ENE,68,0.0,0.0,82,0.00,,---,0.00,VWS V14.01,2013-07-04 07:45:00,
2013-07-04 03:50:00,68.7,63.0,31.01,ENE,68,0.0,0.0,82,0.00,,---,0.00,VWS V14.01,2013-07-04 07:50:00,
2013-07-04 03:55:00,68.7,63.0,31.01,ENE,68,0.0,0.0,82,0.00,,---,0.00,VWS V14.01,2013-07-04 07:55:00,
2013-07-04 04:00:00,68.5,62.8,31.01,ENE,68,0.0,0.0,82,0.00,,---,0.00,VWS V14.01,2013-07-04 08:00:00,
2013-07-04 04:05:00,68.5,62.8,31.01,ENE,68,0.0,0.0,82,0.00,,---,0.00,VWS V14.01,2013-07-04 08:05:00,
2013-07-04 04:10:00,68.5,62.8,31.01,ENE,68,0.0,0.0,82,0.00,,---,0.00,VWS V14.01,2013-07-04 08:10:00,
2013-07-04 04:15:00,68.4,62.7,31.01,ENE,68,0.0,0.0,82,0.00,,---,0.00,VWS V14.01,2013-07-04 08:15:00,
2013-07-04 04:20:00,68.4,62.7,31.01,ENE,68,0.0,0.0,82,0.00,,---,0.00,VWS V14.01,2013-07-04 08:20:00,
2013-07-04 04:25:00,68.4,62.7,31.01,ENE,68,0.0,0.0,82,0.00,,---,0.00,VWS V14.01,2013-07-04 08:25:00,
2013-07-04 04:30:00,68.4,63.0,31.01,ENE,68,0.0,0.0,83,0.00,,---,0.00,VWS V14.01,2013-07-04 08:30:00,
2013-07-04 04:35:00,68.4,63.0,31.01,ENE,68,0.0,0.0,83,0.00,,---,0.00,VWS V14.01,2013-07-04 08:35:00,
2013-07-04 04:40:00,68.5,63.2,31.01,ENE,68,0.0,0.0,83,0.00,,---,0.00,VWS V14.01,2013-07-04 08:40:00,
2013-07-04 04:45:00,68.5,63.2,31.01,ENE,68,0.0,0.0,83,0.00,,---,0.00,VWS V14.01,2013-07-04 08:45:00,
2013-07-04 04:50:00,68.5,63.2,31.01,ENE,68,0.0,0.0,83,0.00,,---,0.00,VWS V14.01,2013-07-04 08:50:00,
2013-07-04 04:55:00,68.5,63.2,31.01,ENE,68,0.0,0.0,83,0.00,,---,0.00,VWS V14.01,2013-07-04 08:55:00,
2013-07-04 05:00:00,68.5,63.2,31.01,ENE,68,0.0,0.0,83,0.00,,---,0.00,VWS V14.01,2013-07-04 09:00:00,
2013-07-04 05:05:00,68.5,63.2,31.01,ENE,68,0.0,0.0,83,0.00,,---,0.00,VWS V14.01,2013-07-04 09:05:00,
2013-07-04 05:10:00,68.4,63.0,31.01,ENE,68,0.0,0.0,83,0.00,,---,0.00,VWS V14.01,2013-07-04 09:10:00,
2013-07-04 05:15:00,68.4,63.0,31.01,ENE,68,0.0,0.0,83,0.00,,---,0.00,VWS V14.01,2013-07-04 09:15:00,
2013-07-04 05:20:00,68.4,63.0,31.01,ENE,68,0.0,0.0,83,0.00,,---,0.00,VWS V14.01,2013-07-04 09:20:00,
2013-07-04 05:25:00,68.4,63.0,31.01,ENE,68,0.0,0.0,83,0.00,,---,0.00,VWS V14.01,2013-07-04 09:25:00,
2013-07-04 05:30:00,68.4,63.0,31.01,ENE,68,0.0,0.0,83,0.00,,---,0.00,VWS V14.01,2013-07-04 09:30:00,
2013-07-04 05:35:00,68.4,63.0,31.01,ENE,68,0.0,0.0,83,0.00,,---,0.00,VWS V14.01,2013-07-04 09:35:00,
2013-07-04 05:40:00,68.4,63.0,31.01,ENE,68,0.0,0.0,83,0.00,,---,0.00,VWS V14.01,2013-07-04 09:40:00,
2013-07-04 05:45:00,68.4,63.0,31.01,ENE,68,0.0,0.0,83,0.00,,---,0.00,VWS V14.01,2013-07-04 09:45:00,
2013-07-04 05:50:00,68.4,63.0,31.01,ENE,68,0.0,0.0,83,0.00,,---,0.00,VWS V14.01,2013-07-04 09:50:00,
2013-07-04 05:55:00,68.4,63.3,31.01,ENE,68,0.0,0.0,84,0.00,,---,0.00,VWS V14.01,2013-07-04 09:55:00,
2013-07-04 06:00:00,68.4,63.0,31.01,ENE,68,0.0,0.0,83,0.00,,---,0.00,VWS V14.01,2013-07-04 10:00:00,
2013-07-04 06:05:00,68.5,63.2,31.01,ENE,68,0.0,0.0,83,0.00,,---,0.00,VWS V14.01,2013-07-04 10:05:00,
2013-07-04 06:10:00,68.5,63.5,31.01,ENE,68,0.0,0.0,84,0.00,,---,0.00,VWS V14.01,2013-07-04 10:10:00,
2013-07-04 06:15:00,68.5,63.5,31.01,ENE,68,0.0,0.0,84,0.00,,---,0.00,VWS V14.01,2013-07-04 10:15:00,
2013-07-04 06:20:00,68.7,63.7,31.01,ENE,68,0.0,0.0,84,0.00,,---,0.00,VWS V14.01,2013-07-04 10:20:00,
2013-07-04 06:25:00,68.7,63.7,31.01,ENE,68,0.0,0.0,84,0.00,,---,0.00,VWS V14.01,2013-07-04 10:25:00,
2013-07-04 06:30:00,68.9,63.9,31.01,ENE,68,0.0,0.0,84,0.00,,---,0.00,VWS V14.01,2013-07-04 10:30:00,
2013-07-04 06:35:00,68.7,63.7,31.01,ENE,68,0.0,0.0,84,0.00,,---,0.00,VWS V14.01,2013-07-04 10:35:00,
2013-07-04 06:40:00,68.9,63.9,31.01,ENE,68,0.0,0.0,84,0.00,,---,0.00,VWS V14.01,2013-07-04 10:40:00,
2013-07-04 06:45:00,69.3,64.2,31.01,ENE,68,0.0,0.0,84,0.00,,---,0.00,VWS V14.01,2013-07-04 10:45:00,
2013-07-04 06:50:00,69.1,64.1,31.01,ENE,68,0.0,0.0,84,0.00,,---,0.00,VWS V14.01,2013-07-04 10:50:00,
2013-07-04 06:55:00,69.4,64.4,31.01,ENE,68,0.0,0.0,84,0.00,,---,0.00,VWS V14.01,2013-07-04 10:55:00,
2013-07-04 07:00:00,69.4,64.4,31.01,ENE,68,0.0,0.0,84,0.00,,---,0.00,VWS V14.01,2013-07-04 11:00:00,
2013-07-04 07:05:00,69.6,64.6,31.01,ENE,68,0.0,0.0,84,0.00,,---,0.00,VWS V14.01,2013-07-04 11:05:00,
2013-07-04 07:10:00,69.8,64.4,31.01,ENE,68,0.0,0.0,83,0.00,,---,0.00,VWS V14.01,2013-07-04 11:10:00,
2013-07-04 07:15:00,70.0,64.6,31.01,ENE,68,0.0,0.0,83,0.00,,---,0.00,VWS V14.01,2013-07-04 11:15:00,
2013-07-04 07:20:00,70.2,64.8,31.01,ENE,68,0.0,0.0,83,0.00,,---,0.00,VWS V14.01,2013-07-04 11:20:00,
2013-07-04 07:25:00,70.5,65.1,31.01,ENE,68,0.0,0.0,83,0.00,,---,0.00,VWS V14.01,2013-07-04 11:25:00,
2013-07-04 07:30:00,70.3,64.9,31.01,ENE,68,0.0,0.0,83,0.00,,---,0.00,VWS V14.01,2013-07-04 11:30:00,
2013-07-04 07:35:00,71.2,65.8,31.01,ENE,68,0.0,0.0,83,0.00,,---,0.00,VWS V14.01,2013-07-04 11:35:00,
2013-07-04 07:40:00,71.6,65.8,31.01,ENE,68,0.0,0.0,82,0.00,,---,0.00,VWS V14.01,2013-07-04 11:40:00,
2013-07-04 07:45:00,72.0,66.2,31.01,ENE,68,0.0,0.0,82,0.00,,---,0.00,VWS V14.01,2013-07-04 11:45:00,
2013-07-04 07:49:00,72.0,65.8,31.01,ENE,68,0.0,0.0,81,0.00,,---,0.00,VWS V14.01,2013-07-04 11:49:00,
2013-07-04 07:50:00,72.0,65.8,31.01,ENE,68,0.0,0.0,81,0.00,,---,0.00,VWS V14.01,2013-07-04 11:50:00,
2013-07-04 07:55:00,71.8,65.6,31.01,ENE,68,0.0,0.0,81,0.00,,---,0.00,VWS V14.01,2013-07-04 11:55:00,
2013-07-04 08:00:00,72.3,66.2,31.01,NE,45,0.0,0.0,81,0.00,,---,0.00,VWS V14.01,2013-07-04 12:00:00,
2013-07-04 08:05:00,72.3,66.2,31.01,NE,45,0.0,0.0,81,0.00,,---,0.00,VWS V14.01,2013-07-04 12:05:00,
2013-07-04 08:10:00,72.7,66.5,31.01,NE,45,0.0,0.0,81,0.00,,---,0.00,VWS V14.01,2013-07-04 12:10:00,
2013-07-04 08:14:00,73.0,66.9,31.01,NE,45,0.0,0.0,81,0.00,,---,0.00,VWS V14.01,2013-07-04 12:14:00,
2013-07-04 08:19:00,72.9,66.3,31.01,NE,45,0.0,0.0,80,0.00,,---,0.00,VWS V14.01,2013-07-04 12:19:00,
2013-07-04 08:24:00,73.0,66.5,31.01,NE,45,0.0,0.0,80,0.00,,---,0.00,VWS V14.01,2013-07-04 12:24:00,
2013-07-04 08:29:00,73.4,66.5,31.01,NE,45,0.0,0.0,79,0.00,,---,0.00,VWS V14.01,2013-07-04 12:29:00,
2013-07-04 08:34:00,73.0,66.2,31.01,NE,45,0.0,0.0,79,0.00,,---,0.00,VWS V14.01,2013-07-04 12:34:00,
2013-07-04 08:39:00,73.0,66.2,31.01,NE,45,0.0,0.0,79,0.00,,---,0.00,VWS V14.01,2013-07-04 12:39:00,
2013-07-04 08:44:00,73.4,66.5,31.01,NE,45,0.0,0.0,79,0.00,,---,0.00,VWS V14.01,2013-07-04 12:44:00,
2013-07-04 08:49:00,75.6,68.6,31.01,NE,45,0.0,0.0,79,0.00,,---,0.00,VWS V14.01,2013-07-04 12:49:00,
2013-07-04 08:54:00,75.9,68.2,31.01,NE,45,0.0,0.0,77,0.00,,---,0.00,VWS V14.01,2013-07-04 12:54:00,
2013-07-04 08:59:00,77.4,69.2,31.01,NE,45,0.0,0.0,76,0.00,,---,0.00,VWS V14.01,2013-07-04 12:59:00,
2013-07-04 09:04:00,78.4,70.2,31.01,NE,45,0.0,0.0,76,0.00,,---,0.00,VWS V14.01,2013-07-04 13:04:00,
2013-07-04 09:09:00,79.2,70.2,31.01,NE,45,0.0,0.0,74,0.00,,---,0.00,VWS V14.01,2013-07-04 13:09:00,
2013-07-04 09:14:00,78.8,69.4,31.01,NE,45,0.0,0.0,73,0.00,,---,0.00,VWS V14.01,2013-07-04 13:14:00,
2013-07-04 09:19:00,79.3,69.9,31.01,NE,45,0.0,0.0,73,0.00,,---,0.00,VWS V14.01,2013-07-04 13:19:00,
2013-07-04 09:24:00,81.5,71.2,31.01,NE,45,0.0,0.0,71,0.00,,---,0.00,VWS V14.01,2013-07-04 13:24:00,
2013-07-04 09:29:00,82.2,71.0,30.65,WNW,292,0.0,0.0,69,0.00,,---,0.00,VWS V14.01,2013-07-04 13:29:00,
2013-07-04 09:34:00,84.9,72.8,30.65,WNW,292,0.0,0.0,67,0.00,,---,0.00,VWS V14.01,2013-07-04 13:34:00,
2013-07-04 09:39:00,85.8,73.6,30.65,WNW,292,0.0,0.0,67,0.00,,---,0.00,VWS V14.01,2013-07-04 13:39:00,
2013-07-04 09:44:00,85.8,73.2,31.01,WNW,292,0.0,0.0,66,0.00,,---,0.00,VWS V14.01,2013-07-04 13:44:00,
2013-07-04 09:49:00,85.3,71.7,31.01,WNW,292,0.0,0.0,64,0.00,,---,0.00,VWS V14.01,2013-07-04 13:49:00,
2013-07-04 09:54:00,85.1,71.1,31.01,WNW,292,0.0,0.0,63,0.00,,---,0.00,VWS V14.01,2013-07-04 13:54:00,
2013-07-04 09:59:00,85.8,71.3,31.01,WNW,292,0.0,0.0,62,0.00,,---,0.00,VWS V14.01,2013-07-04 13:59:00,
2013-07-04 10:04:00,87.4,72.3,31.01,West,270,0.0,0.0,61,0.00,,---,0.00,VWS V14.01,2013-07-04 14:04:00,
2013-07-04 10:09:00,88.2,71.5,31.01,West,270,0.0,0.0,58,0.00,,---,0.00,VWS V14.01,2013-07-04 14:09:00,
2013-07-04 10:14:00,90.0,72.2,31.01,WSW,248,0.0,0.0,56,0.00,,---,0.00,VWS V14.01,2013-07-04 14:14:00,
2013-07-04 10:19:00,89.2,68.8,31.01,WSW,248,0.0,0.0,51,0.00,,---,0.00,VWS V14.01,2013-07-04 14:19:00,
2013-07-04 10:24:00,90.3,70.9,31.01,WSW,248,0.0,0.0,53,0.00,,---,0.00,VWS V14.01,2013-07-04 14:24:00,
2013-07-04 10:29:00,91.6,69.7,31.01,WSW,248,0.0,0.0,49,0.00,,---,0.00,VWS V14.01,2013-07-04 14:29:00,
2013-07-04 10:34:00,88.9,69.0,31.01,WSW,248,0.0,0.0,52,0.00,,---,0.00,VWS V14.01,2013-07-04 14:34:00,
2013-07-04 10:39:00,87.8,68.0,31.01,WSW,248,0.0,0.0,52,0.00,,---,0.00,VWS V14.01,2013-07-04 14:39:00,
2013-07-04 10:44:00,86.2,67.6,31.01,WSW,248,0.0,0.0,54,0.00,,---,0.00,VWS V14.01,2013-07-04 14:44:00,
2013-07-04 10:49:00,87.4,68.2,31.01,WNW,292,0.0,0.0,53,0.00,,---,0.00,VWS V14.01,2013-07-04 14:49:00,
2013-07-04 10:54:00,87.4,68.2,31.01,WNW,292,0.0,2.2,53,0.00,,---,0.00,VWS V14.01,2013-07-04 14:54:00,
2013-07-04 10:59:00,88.5,68.7,31.01,WNW,292,0.0,0.0,52,0.00,,---,0.00,VWS V14.01,2013-07-04 14:59:00,
2013-07-04 11:04:00,88.7,67.7,31.01,WNW,292,1.1,1.1,50,0.00,,---,0.00,VWS V14.01,2013-07-04 15:04:00,
2013-07-04 11:09:00,88.3,66.2,31.01,WNW,292,1.6,1.6,48,0.00,,---,0.00,VWS V14.01,2013-07-04 15:09:00,
2013-07-04 11:14:00,88.7,67.1,31.01,WNW,292,2.0,2.0,49,0.00,,---,0.00,VWS V14.01,2013-07-04 15:14:00,
2013-07-04 11:19:00,88.2,66.0,31.01,WNW,292,2.0,2.0,48,0.00,,---,0.00,VWS V14.01,2013-07-04 15:19:00,
2013-07-04 11:24:00,87.6,67.3,31.01,WNW,292,2.0,2.0,51,0.00,,---,0.00,VWS V14.01,2013-07-04 15:24:00,
2013-07-04 11:29:00,87.6,66.1,31.01,WNW,292,2.0,2.0,49,0.00,,---,0.00,VWS V14.01,2013-07-04 15:29:00,
2013-07-04 11:34:00,87.8,67.4,31.01,WNW,292,2.0,2.0,51,0.00,,---,0.00,VWS V14.01,2013-07-04 15:34:00,
2013-07-04 11:39:00,88.7,67.7,31.01,WNW,292,2.0,2.0,50,0.00,,---,0.00,VWS V14.01,2013-07-04 15:39:00,
2013-07-04 11:44:00,89.1,66.8,31.01,West,270,3.1,3.1,48,0.00,,---,0.00,VWS V14.01,2013-07-04 15:44:00,
2013-07-04 11:49:00,88.3,66.8,31.01,West,270,3.1,3.1,49,0.00,,---,0.00,VWS V14.01,2013-07-04 15:49:00,
2013-07-04 11:54:00,88.0,66.4,31.01,West,270,3.1,3.1,49,0.00,,---,0.00,VWS V14.01,2013-07-04 15:54:00,
2013-07-04 11:59:00,89.1,66.2,31.01,West,270,1.6,3.1,47,0.00,,---,0.00,VWS V14.01,2013-07-04 15:59:00,
2013-07-04 12:04:00,89.1,66.2,31.01,West,270,2.5,2.5,47,0.00,,---,0.00,VWS V14.01,2013-07-04 16:04:00,
2013-07-04 12:09:00,91.8,68.7,31.01,West,270,3.6,3.6,47,0.00,,---,0.00,VWS V14.01,2013-07-04 16:09:00,
2013-07-04 12:14:00,90.7,65.8,31.01,NW,315,0.9,0.9,44,0.00,,---,0.00,VWS V14.01,2013-07-04 16:14:00,
2013-07-04 12:19:00,86.2,64.8,31.01,NW,315,2.9,2.9,49,0.00,,---,0.00,VWS V14.01,2013-07-04 16:19:00,
2013-07-04 12:24:00,85.3,64.0,31.01,WSW,248,3.8,3.8,49,0.00,,---,0.00,VWS V14.01,2013-07-04 16:24:00,
2013-07-04 12:29:00,86.4,65.0,31.01,WSW,248,2.9,3.1,49,0.00,,---,0.00,VWS V14.01,2013-07-04 16:29:00,
2013-07-04 12:34:00,88.0,66.4,31.01,West,270,2.5,2.5,49,0.00,,---,0.00,VWS V14.01,2013-07-04 16:34:00,
2013-07-04 12:39:00,88.2,66.6,31.01,West,270,1.1,1.1,49,0.00,,---,0.00,VWS V14.01,2013-07-04 16:39:00,
2013-07-04 12:44:00,88.9,67.3,31.01,West,270,2.7,2.7,49,0.00,,---,0.00,VWS V14.01,2013-07-04 16:44:00,
2013-07-04 12:49:00,88.5,66.3,31.01,West,270,2.0,2.0,48,0.00,,---,0.00,VWS V14.01,2013-07-04 16:49:00,
2013-07-04 12:54:00,87.3,65.8,31.01,West,270,0.0,0.0,49,0.00,,---,0.00,VWS V14.01,2013-07-04 16:54:00,
2013-07-04 12:59:00,87.4,66.5,31.01,WSW,248,3.1,3.1,50,0.00,,---,0.00,VWS V14.01,2013-07-04 16:59:00,
2013-07-04 13:04:00,87.8,66.9,31.01,West,270,0.0,0.9,50,0.00,,---,0.00,VWS V14.01,2013-07-04 17:04:00,
2013-07-04 13:09:00,88.2,66.0,31.01,West,270,2.7,2.7,48,0.00,,---,0.00,VWS V14.01,2013-07-04 17:09:00,
2013-07-04 13:14:00,88.3,66.2,31.01,West,270,0.0,0.0,48,0.00,,---,0.00,VWS V14.01,2013-07-04 17:14:00,
2013-07-04 13:19:00,88.7,65.9,31.01,West,270,0.0,0.0,47,0.00,,---,0.00,VWS V14.01,2013-07-04 17:19:00,
2013-07-04 13:24:00,90.7,67.1,31.01,West,270,0.0,0.0,46,0.00,,---,0.00,VWS V14.01,2013-07-04 17:24:00,
2013-07-04 13:29:00,90.9,67.9,31.01,SSE,158,0.0,0.0,47,0.00,,---,0.00,VWS V14.01,2013-07-04 17:29:00,
2013-07-04 13:34:00,88.7,65.9,31.01,South,180,0.0,0.0,47,0.00,,---,0.00,VWS V14.01,2013-07-04 17:34:00,
2013-07-04 13:39:00,89.2,65.1,31.01,ESE,112,0.0,0.0,45,0.00,,---,0.00,VWS V14.01,2013-07-04 17:39:00,
2013-07-04 13:44:00,89.4,65.9,31.01,WNW,292,2.2,2.2,46,0.00,,---,0.00,VWS V14.01,2013-07-04 17:44:00,
2013-07-04 13:49:00,87.8,65.1,31.01,WNW,292,1.3,2.0,47,0.00,,---,0.00,VWS V14.01,2013-07-04 17:49:00,
2013-07-04 13:54:00,87.1,65.6,31.01,WNW,292,0.0,0.0,49,0.00,,---,0.00,VWS V14.01,2013-07-04 17:54:00,
2013-07-04 13:59:00,86.7,66.4,31.01,WNW,292,0.0,0.0,51,0.00,,---,0.00,VWS V14.01,2013-07-04 17:59:00,
2013-07-04 14:04:00,85.8,66.7,31.01,North,0,0.0,0.0,53,0.00,,---,0.00,VWS V14.01,2013-07-04 18:04:00,
2013-07-04 14:09:00,86.4,65.5,31.01,NNW,338,1.6,1.6,50,0.00,,---,0.00,VWS V14.01,2013-07-04 18:09:00,
2013-07-04 14:14:00,85.8,64.5,31.01,WNW,292,3.6,3.6,49,0.00,,---,0.00,VWS V14.01,2013-07-04 18:14:00,
2013-07-04 14:19:00,88.7,64.7,31.01,East,90,0.0,0.0,45,0.00,,---,0.00,VWS V14.01,2013-07-04 18:19:00,
2013-07-04 14:24:00,88.2,65.4,31.01,ESE,112,0.0,1.3,47,0.00,,---,0.00,VWS V14.01,2013-07-04 18:24:00,
2013-07-04 14:29:00,87.1,65.0,31.01,ESE,112,0.0,2.5,48,0.00,,---,0.00,VWS V14.01,2013-07-04 18:29:00,
2013-07-04 14:34:00,86.0,63.4,31.01,ENE,68,2.2,2.5,47,0.00,,---,0.00,VWS V14.01,2013-07-04 18:34:00,
2013-07-04 14:39:00,84.6,62.7,31.01,ENE,68,0.0,0.0,48,0.00,,---,0.00,VWS V14.01,2013-07-04 18:39:00,
2013-07-04 14:44:00,84.4,63.2,31.01,ENE,68,0.0,0.0,49,0.00,,---,0.00,VWS V14.01,2013-07-04 18:44:00,
2013-07-04 14:49:00,83.8,64.9,31.01,NNW,338,0.0,0.0,53,0.00,,---,0.00,VWS V14.01,2013-07-04 18:49:00,
2013-07-04 14:54:00,84.9,65.9,31.01,NNW,338,1.3,1.3,53,0.00,,---,0.00,VWS V14.01,2013-07-04 18:54:00,
2013-07-04 14:59:00,84.6,66.1,31.01,NNW,338,0.0,0.0,54,0.00,,---,0.00,VWS V14.01,2013-07-04 18:59:00,
2013-07-04 15:04:00,84.6,66.1,31.01,NNE,22,0.0,0.0,54,0.00,,---,0.00,VWS V14.01,2013-07-04 19:04:00,
2013-07-04 15:09:00,83.3,66.0,31.01,NNE,22,1.1,1.1,56,0.00,,---,0.00,VWS V14.01,2013-07-04 19:09:00,
2013-07-04 15:14:00,82.4,65.7,31.01,WNW,292,0.0,0.0,57,0.00,,---,0.00,VWS V14.01,2013-07-04 19:14:00,
2013-07-04 15:19:00,81.9,65.7,31.01,WNW,292,0.0,0.0,58,0.00,,---,0.00,VWS V14.01,2013-07-04 19:19:00,
2013-07-04 15:24:00,81.9,65.7,31.01,WNW,292,0.0,0.0,58,0.04,,---,0.04,VWS V14.01,2013-07-04 19:24:00,
2013-07-04 15:29:00,79.0,65.3,31.01,WNW,292,0.0,0.0,63,0.04,,---,0.04,VWS V14.01,2013-07-04 19:29:00,
2013-07-04 15:33:00,79.0,65.3,30.74,WNW,292,0.0,0.0,63,0.04,,---,0.04,VWS V14.01,2013-07-04 19:33:00,
2013-07-04 15:38:00,79.0,66.2,30.74,SSW,202,1.1,1.1,65,0.04,,---,0.04,VWS V14.01,2013-07-04 19:38:00,
2013-07-04 15:43:00,78.6,65.9,30.74,WSW,248,1.3,1.3,65,0.04,,---,0.04,VWS V14.01,2013-07-04 19:43:00,
2013-07-04 15:48:00,78.1,64.9,31.01,NW,315,2.2,4.3,64,0.04,,---,0.04,VWS V14.01,2013-07-04 19:48:00,
2013-07-04 15:53:00,76.3,62.8,31.01,NW,315,0.0,2.5,63,0.04,,---,0.04,VWS V14.01,2013-07-04 19:53:00,
2013-07-04 15:58:00,75.7,62.3,31.01,SW,225,0.9,0.9,63,0.04,,---,0.04,VWS V14.01,2013-07-04 19:58:00,
2013-07-04 16:03:00,75.7,62.3,31.01,NNE,22,2.0,2.0,63,0.04,,---,0.04,VWS V14.01,2013-07-04 20:03:00,
2013-07-04 16:08:00,75.0,62.0,31.01,SE,135,1.6,1.6,64,0.04,,---,0.04,VWS V14.01,2013-07-04 20:08:00,
2013-07-04 16:13:00,75.0,62.0,31.01,WNW,292,0.0,0.0,64,0.08,,---,0.08,VWS V14.01,2013-07-04 20:13:00,
2013-07-04 16:18:00,74.1,61.6,31.01,South,180,0.0,0.0,65,0.13,,---,0.13,VWS V14.01,2013-07-04 20:18:00,
2013-07-04 16:23:00,74.1,62.0,31.01,South,180,0.0,0.0,66,0.09,,---,0.13,VWS V14.01,2013-07-04 20:23:00,
2013-07-04 16:28:00,73.8,62.1,31.01,SSE,158,0.0,0.0,67,0.09,,---,0.13,VWS V14.01,2013-07-04 20:28:00,
2013-07-04 16:33:00,73.8,62.5,31.01,SE,135,0.0,1.3,68,0.13,,---,0.17,VWS V14.01,2013-07-04 20:33:00,
2013-07-04 16:38:00,73.6,62.4,31.01,SE,135,0.0,0.0,68,0.13,,---,0.17,VWS V14.01,2013-07-04 20:38:00,
2013-07-04 16:43:00,73.6,62.8,31.01,SE,135,0.0,0.0,69,0.13,,---,0.17,VWS V14.01,2013-07-04 20:43:00,
2013-07-04 16:48:00,73.8,63.0,31.01,SE,135,0.0,0.0,69,0.13,,---,0.17,VWS V14.01,2013-07-04 20:48:00,
2013-07-04 16:53:00,73.2,62.5,31.01,SE,135,0.9,0.9,69,0.17,,---,0.21,VWS V14.01,2013-07-04 20:53:00,
2013-07-04 16:58:00,73.4,63.0,31.01,ESE,112,0.0,0.9,70,0.17,,---,0.21,VWS V14.01,2013-07-04 20:58:00,
2013-07-04 17:03:00,73.2,62.9,31.01,ESE,112,0.0,0.0,70,0.17,,---,0.21,VWS V14.01,2013-07-04 21:03:00,
2013-07-04 17:08:00,73.2,63.3,31.01,SSW,202,0.0,0.0,71,0.17,,---,0.21,VWS V14.01,2013-07-04 21:08:00,
2013-07-04 17:13:00,73.2,63.3,31.01,NW,315,1.1,1.1,71,0.13,,---,0.21,VWS V14.01,2013-07-04 21:13:00,
2013-07-04 17:18:00,73.2,63.3,31.01,NW,315,0.0,0.0,71,0.08,,---,0.21,VWS V14.01,2013-07-04 21:18:00,
2013-07-04 17:23:00,73.0,63.5,31.01,NW,315,0.0,0.0,72,0.12,,---,0.25,VWS V14.01,2013-07-04 21:23:00,
2013-07-04 17:28:00,72.9,63.7,31.01,West,270,0.0,0.0,73,0.16,,---,0.29,VWS V14.01,2013-07-04 21:28:00,
2013-07-04 17:33:00,72.7,63.1,31.01,West,270,0.0,0.0,72,0.12,,---,0.29,VWS V14.01,2013-07-04 21:33:00,
2013-07-04 17:38:00,72.7,63.5,31.01,East,90,0.0,0.0,73,0.16,,---,0.33,VWS V14.01,2013-07-04 21:38:00,
2013-07-04 17:43:00,72.3,63.2,31.01,ENE,68,1.1,1.1,73,0.16,,---,0.33,VWS V14.01,2013-07-04 21:43:00,
2013-07-04 17:48:00,72.5,63.8,31.01,ENE,68,0.0,0.0,74,0.16,,---,0.33,VWS V14.01,2013-07-04 21:48:00,
2013-07-04 17:53:00,72.5,63.8,31.01,ENE,68,0.0,0.0,74,0.12,,---,0.33,VWS V14.01,2013-07-04 21:53:00,
2013-07-04 17:58:00,72.5,64.1,31.01,ENE,68,0.0,0.0,75,0.12,,---,0.33,VWS V14.01,2013-07-04 21:58:00,
2013-07-04 18:03:00,72.3,63.6,31.01,ENE,68,0.0,0.0,74,0.12,,---,0.33,VWS V14.01,2013-07-04 22:03:00,
2013-07-04 18:08:00,72.1,63.8,31.01,ENE,68,0.0,0.0,75,0.12,,---,0.33,VWS V14.01,2013-07-04 22:08:00,
2013-07-04 18:13:00,72.5,64.1,31.01,ENE,68,0.0,0.0,75,0.12,,---,0.33,VWS V14.01,2013-07-04 22:13:00,
2013-07-04 18:18:00,73.0,65.0,31.01,ENE,68,0.0,0.0,76,0.12,,---,0.33,VWS V14.01,2013-07-04 22:18:00,
2013-07-04 18:23:00,73.0,64.7,31.01,NE,45,2.2,2.2,75,0.08,,---,0.33,VWS V14.01,2013-07-04 22:23:00,
2013-07-04 18:28:00,73.6,65.2,31.01,NE,45,0.0,0.0,75,0.04,,---,0.33,VWS V14.01,2013-07-04 22:28:00,
2013-07-04 18:33:00,74.5,65.7,31.01,NE,45,0.0,0.0,74,0.04,,---,0.33,VWS V14.01,2013-07-04 22:33:00,
2013-07-04 18:38:00,74.7,65.8,31.01,NE,45,1.1,1.1,74,0.00,,---,0.33,VWS V14.01,2013-07-04 22:38:00,
2013-07-04 18:43:00,74.5,66.0,31.01,NE,45,0.0,0.0,75,0.00,,---,0.33,VWS V14.01,2013-07-04 22:43:00,
2013-07-04 18:48:00,74.3,65.9,31.01,NE,45,0.0,0.0,75,0.00,,---,0.33,VWS V14.01,2013-07-04 22:48:00,
2013-07-04 18:53:00,74.3,65.9,31.01,NE,45,0.0,0.0,75,0.00,,---,0.33,VWS V14.01,2013-07-04 22:53:00,
2013-07-04 18:58:00,73.9,65.5,31.01,NE,45,0.0,0.0,75,0.00,,---,0.33,VWS V14.01,2013-07-04 22:58:00,
2013-07-04 19:03:00,73.6,65.6,31.01,NE,45,0.0,0.0,76,0.00,,---,0.33,VWS V14.01,2013-07-04 23:03:00,
2013-07-04 19:08:00,73.6,65.9,31.01,NE,45,0.0,0.0,77,0.00,,---,0.33,VWS V14.01,2013-07-04 23:08:00,
2013-07-04 19:13:00,73.4,65.8,31.01,NE,45,0.0,0.0,77,0.00,,---,0.33,VWS V14.01,2013-07-04 23:13:00,
2013-07-04 19:18:00,73.2,66.0,31.01,NE,45,0.0,0.0,78,0.00,,---,0.33,VWS V14.01,2013-07-04 23:18:00,
2013-07-04 19:23:00,73.0,65.8,31.01,NE,45,0.0,0.0,78,0.00,,---,0.33,VWS V14.01,2013-07-04 23:23:00,
2013-07-04 19:28:00,72.7,65.4,31.01,NE,45,0.0,0.0,78,0.00,,---,0.33,VWS V14.01,2013-07-04 23:28:00,
2013-07-04 19:33:00,72.5,65.3,31.01,NE,45,0.0,0.0,78,0.00,,---,0.33,VWS V14.01,2013-07-04 23:33:00,
2013-07-04 19:38:00,72.3,65.1,31.01,NE,45,0.0,0.0,78,0.00,,---,0.33,VWS V14.01,2013-07-04 23:38:00,
2013-07-04 19:43:00,72.1,65.3,31.01,NE,45,0.9,0.9,79,0.00,,---,0.33,VWS V14.01,2013-07-04 23:43:00,
2013-07-04 19:48:00,72.1,65.3,31.01,NE,45,0.0,0.0,79,0.00,,---,0.33,VWS V14.01,2013-07-04 23:48:00,
2013-07-04 19:53:00,72.1,65.3,31.01,NE,45,0.0,0.0,79,0.00,,---,0.33,VWS V14.01,2013-07-04 23:53:00,
2013-07-04 19:58:00,72.0,65.1,31.01,NE,45,0.0,0.0,79,0.00,,---,0.33,VWS V14.01,2013-07-04 23:58:00,
2013-07-04 20:03:00,71.8,64.9,31.01,NE,45,0.0,0.0,79,0.00,,---,0.33,VWS V14.01,2013-07-05 00:03:00,
2013-07-04 20:08:00,71.8,64.9,31.01,NE,45,0.0,0.0,79,0.00,,---,0.33,VWS V14.01,2013-07-05 00:08:00,
2013-07-04 20:13:00,71.6,64.8,31.01,NE,45,0.0,0.0,79,0.00,,---,0.33,VWS V14.01,2013-07-05 00:13:00,
2013-07-04 20:18:00,71.6,65.1,31.01,NE,45,0.0,0.0,80,0.00,,---,0.33,VWS V14.01,2013-07-05 00:18:00,
2013-07-04 20:23:00,71.6,65.1,31.01,NNW,338,2.5,2.5,80,0.00,,---,0.33,VWS V14.01,2013-07-05 00:23:00,
2013-07-04 20:28:00,71.6,65.1,31.01,NNW,338,0.0,0.0,80,0.00,,---,0.33,VWS V14.01,2013-07-05 00:28:00,
2013-07-04 20:33:00,71.4,64.9,31.01,NNW,338,0.0,0.0,80,0.00,,---,0.33,VWS V14.01,2013-07-05 00:33:00,
2013-07-04 20:38:00,71.2,64.8,31.01,NNW,338,0.0,0.0,80,0.00,,---,0.33,VWS V14.01,2013-07-05 00:38:00,
2013-07-04 20:43:00,71.2,65.1,31.01,NNW,338,0.0,0.0,81,0.00,,---,0.33,VWS V14.01,2013-07-05 00:43:00,
2013-07-04 20:48:00,71.1,64.9,31.01,NNW,338,0.0,0.0,81,0.00,,---,0.33,VWS V14.01,2013-07-05 00:48:00,
2013-07-04 20:53:00,70.9,64.8,31.01,NNW,338,0.0,0.0,81,0.00,,---,0.33,VWS V14.01,2013-07-05 00:53:00,
2013-07-04 20:58:00,70.9,64.8,31.01,NNW,338,0.0,0.0,81,0.00,,---,0.33,VWS V14.01,2013-07-05 00:58:00,
2013-07-04 21:03:00,70.7,64.6,31.01,NNW,338,0.0,0.0,81,0.00,,---,0.33,VWS V14.01,2013-07-05 01:03:00,
2013-07-04 21:08:00,70.5,64.4,31.01,NNW,338,0.0,0.0,81,0.00,,---,0.33,VWS V14.01,2013-07-05 01:08:00,
2013-07-04 21:13:00,70.5,64.4,31.01,NNW,338,0.0,0.0,81,0.00,,---,0.33,VWS V14.01,2013-07-05 01:13:00,
2013-07-04 21:18:00,70.3,64.2,31.01,NNW,338,0.0,0.0,81,0.00,,---,0.33,VWS V14.01,2013-07-05 01:18:00,
2013-07-04 21:23:00,70.3,64.2,31.01,NNW,338,0.0,0.0,81,0.00,,---,0.33,VWS V14.01,2013-07-05 01:23:00,
2013-07-04 21:28:00,70.2,64.1,31.01,NNW,338,0.0,0.0,81,0.00,,---,0.33,VWS V14.01,2013-07-05 01:28:00,
2013-07-04 21:33:00,70.0,63.9,30.21,NNW,338,0.0,0.0,81,0.00,,---,0.33,VWS V14.01,2013-07-05 01:33:00,
2013-07-04 21:38:00,70.0,63.9,30.21,NNW,338,0.0,0.0,81,0.00,,---,0.33,VWS V14.01,2013-07-05 01:38:00,
2013-07-04 21:43:00,69.8,63.7,30.21,NNW,338,0.0,0.0,81,0.00,,---,0.33,VWS V14.01,2013-07-05 01:43:00,
2013-07-04 21:48:00,69.8,63.7,31.01,NNW,338,0.0,0.0,81,0.00,,---,0.33,VWS V14.01,2013-07-05 01:48:00,
2013-07-04 21:53:00,69.6,63.9,31.01,NNW,338,0.0,0.0,82,0.00,,---,0.33,VWS V14.01,2013-07-05 01:53:00,
2013-07-04 21:58:00,69.6,63.9,31.01,NNW,338,0.0,0.0,82,0.00,,---,0.33,VWS V14.01,2013-07-05 01:58:00,
2013-07-04 22:03:00,69.6,63.5,31.01,NNW,338,0.0,0.0,81,0.00,,---,0.33,VWS V14.01,2013-07-05 02:03:00,
2013-07-04 22:08:00,69.4,63.4,31.01,NNW,338,0.0,0.0,81,0.00,,---,0.33,VWS V14.01,2013-07-05 02:08:00,
2013-07-04 22:13:00,69.4,63.4,31.01,NNW,338,0.0,0.0,81,0.00,,---,0.33,VWS V14.01,2013-07-05 02:13:00,
2013-07-04 22:18:00,69.3,63.2,31.01,NNW,338,0.0,0.0,81,0.00,,---,0.33,VWS V14.01,2013-07-05 02:18:00,
2013-07-04 22:23:00,69.3,63.2,31.01,NNW,338,0.0,0.0,81,0.00,,---,0.33,VWS V14.01,2013-07-05 02:23:00,
2013-07-04 22:28:00,69.3,63.5,31.01,NNW,338,0.0,0.0,82,0.00,,---,0.33,VWS V14.01,2013-07-05 02:28:00,
2013-07-04 22:33:00,69.1,63.4,31.01,NNW,338,0.0,0.0,82,0.00,,---,0.33,VWS V14.01,2013-07-05 02:33:00,
2013-07-04 22:38:00,69.1,63.4,31.01,NNW,338,0.0,0.0,82,0.00,,---,0.33,VWS V14.01,2013-07-05 02:38:00,
2013-07-04 22:43:00,69.1,63.4,31.01,NNW,338,0.0,0.0,82,0.00,,---,0.33,VWS V14.01,2013-07-05 02:43:00,
2013-07-04 22:48:00,69.1,63.4,31.01,NNW,338,0.0,0.0,82,0.00,,---,0.33,VWS V14.01,2013-07-05 02:48:00,
2013-07-04 22:52:00,68.9,63.2,31.01,NNW,338,0.0,0.0,82,0.00,,---,0.33,VWS V14.01,2013-07-05 02:52:00,
2013-07-04 22:57:00,68.9,63.2,31.01,NNW,338,0.0,0.0,82,0.00,,---,0.33,VWS V14.01,2013-07-05 02:57:00,
2013-07-04 23:02:00,68.5,62.8,31.01,NNW,338,0.0,0.0,82,0.00,,---,0.33,VWS V14.01,2013-07-05 03:02:00,
2013-07-04 23:07:00,68.5,62.8,31.01,NNW,338,0.0,0.0,82,0.00,,---,0.33,VWS V14.01,2013-07-05 03:07:00,
2013-07-04 23:12:00,68.4,62.7,31.01,NNW,338,0.0,0.0,82,0.00,,---,0.33,VWS V14.01,2013-07-05 03:12:00,
2013-07-04 23:17:00,68.4,62.7,31.01,NNW,338,0.0,0.0,82,0.00,,---,0.33,VWS V14.01,2013-07-05 03:17:00,
2013-07-04 23:22:00,68.4,62.7,31.01,NNW,338,0.0,0.0,82,0.00,,---,0.33,VWS V14.01,2013-07-05 03:22:00,
2013-07-04 23:27:00,68.4,62.7,31.01,NNW,338,0.0,0.0,82,0.00,,---,0.33,VWS V14.01,2013-07-05 03:27:00,
2013-07-04 23:32:00,68.2,62.5,31.01,NNW,338,0.0,0.0,82,0.00,,---,0.33,VWS V14.01,2013-07-05 03:32:00,
2013-07-04 23:37:00,68.2,62.5,31.01,NNW,338,0.0,0.0,82,0.00,,---,0.33,VWS V14.01,2013-07-05 03:37:00,
2013-07-04 23:42:00,68.2,62.5,31.01,NNW,338,0.0,0.0,82,0.00,,---,0.33,VWS V14.01,2013-07-05 03:42:00,
2013-07-04 23:47:00,68.0,62.3,31.01,NNW,338,0.0,0.0,82,0.00,,---,0.33,VWS V14.01,2013-07-05 03:47:00,
2013-07-04 23:52:00,68.2,62.5,31.01,NNW,338,0.0,0.0,82,0.00,,---,0.33,VWS V14.01,2013-07-05 03:52:00,
2013-07-04 23:57:00,68.2,62.5,31.01,NNW,338,0.0,0.0,82,0.00,,---,0.33,VWS V14.01,2013-07-05 03:57:00,